sensor_id;sensor_type;location;lat;lon;timestamp;P1;durP1;ratioP1;P2;durP2;ratioP2
76292;SDS011;67256;51.154;4.164;2023-07-16T00:01:28;12.77;;;2.67;;
76292;SDS011;67256;51.154;4.164;2023-07-16T00:03:54;7.38;;;2.97;;
76292;SDS011;67256;51.154;4.164;2023-07-16T00:06:20;8.85;;;2.80;;
76292;SDS011;67256;51.154;4.164;2023-07-16T00:08:45;11.63;;;2.80;;
76292;SDS011;67256;51.154;4.164;2023-07-16T00:11:11;9.20;;;2.60;;
76292;SDS011;67256;51.154;4.164;2023-07-16T00:13:37;8.27;;;2.28;;
76292;SDS011;67256;51.154;4.164;2023-07-16T00:16:03;13.63;;;3.92;;
76292;SDS011;67256;51.154;4.164;2023-07-16T00:18:30;7.25;;;2.22;;
76292;SDS011;67256;51.154;4.164;2023-07-16T00:20:56;9.73;;;2.10;;
76292;SDS011;67256;51.154;4.164;2023-07-16T00:23:22;6.80;;;2.22;;
76292;SDS011;67256;51.154;4.164;2023-07-16T00:25:47;9.52;;;2.83;;
76292;SDS011;67256;51.154;4.164;2023-07-16T00:28:13;10.27;;;2.50;;
76292;SDS011;67256;51.154;4.164;2023-07-16T00:30:39;9.48;;;2.45;;
76292;SDS011;67256;51.154;4.164;2023-07-16T00:33:05;8.23;;;2.70;;
76292;SDS011;67256;51.154;4.164;2023-07-16T00:35:31;8.63;;;3.00;;
76292;SDS011;67256;51.154;4.164;2023-07-16T00:37:57;7.50;;;2.72;;
76292;SDS011;67256;51.154;4.164;2023-07-16T00:40:22;9.10;;;2.88;;
76292;SDS011;67256;51.154;4.164;2023-07-16T00:42:48;6.75;;;2.55;;
76292;SDS011;67256;51.154;4.164;2023-07-16T00:45:14;9.27;;;2.80;;
76292;SDS011;67256;51.154;4.164;2023-07-16T00:47:40;11.02;;;3.00;;
76292;SDS011;67256;51.154;4.164;2023-07-16T00:50:08;10.90;;;2.60;;
76292;SDS011;67256;51.154;4.164;2023-07-16T00:52:35;8.82;;;2.72;;
76292;SDS011;67256;51.154;4.164;2023-07-16T00:55:01;18.55;;;3.10;;
76292;SDS011;67256;51.154;4.164;2023-07-16T00:57:27;10.75;;;2.65;;
76292;SDS011;67256;51.154;4.164;2023-07-16T00:59:53;8.65;;;2.72;;
76292;SDS011;67256;51.154;4.164;2023-07-16T01:02:19;11.55;;;3.28;;
76292;SDS011;67256;51.154;4.164;2023-07-16T01:04:45;11.45;;;2.58;;
76292;SDS011;67256;51.154;4.164;2023-07-16T01:07:11;9.57;;;2.67;;
76292;SDS011;67256;51.154;4.164;2023-07-16T01:09:41;9.73;;;2.60;;
76292;SDS011;67256;51.154;4.164;2023-07-16T01:12:07;11.07;;;2.60;;
76292;SDS011;67256;51.154;4.164;2023-07-16T01:14:35;8.40;;;2.70;;
76292;SDS011;67256;51.154;4.164;2023-07-16T01:17:03;11.27;;;3.20;;
76292;SDS011;67256;51.154;4.164;2023-07-16T01:19:29;11.57;;;2.88;;
76292;SDS011;67256;51.154;4.164;2023-07-16T01:30:29;10.30;;;2.95;;
76292;SDS011;67256;51.154;4.164;2023-07-16T01:32:56;6.18;;;2.47;;
76292;SDS011;67256;51.154;4.164;2023-07-16T01:35:22;10.55;;;2.83;;
76292;SDS011;67256;51.154;4.164;2023-07-16T01:37:49;6.70;;;3.05;;
76292;SDS011;67256;51.154;4.164;2023-07-16T01:40:14;12.48;;;2.78;;
76292;SDS011;67256;51.154;4.164;2023-07-16T01:42:40;12.18;;;2.65;;
76292;SDS011;67256;51.154;4.164;2023-07-16T01:45:06;7.82;;;3.05;;
76292;SDS011;67256;51.154;4.164;2023-07-16T01:47:55;9.77;;;3.05;;
76292;SDS011;67256;51.154;4.164;2023-07-16T01:50:24;12.10;;;2.70;;
76292;SDS011;67256;51.154;4.164;2023-07-16T01:52:51;7.25;;;2.50;;
76292;SDS011;67256;51.154;4.164;2023-07-16T01:55:16;8.45;;;3.63;;
76292;SDS011;67256;51.154;4.164;2023-07-16T01:57:42;10.90;;;2.95;;
76292;SDS011;67256;51.154;4.164;2023-07-16T02:00:08;11.43;;;3.25;;
76292;SDS011;67256;51.154;4.164;2023-07-16T02:02:34;12.98;;;2.90;;
76292;SDS011;67256;51.154;4.164;2023-07-16T02:04:59;12.88;;;3.90;;
76292;SDS011;67256;51.154;4.164;2023-07-16T02:07:25;10.75;;;3.35;;
76292;SDS011;67256;51.154;4.164;2023-07-16T02:09:51;8.50;;;3.20;;
76292;SDS011;67256;51.154;4.164;2023-07-16T02:12:16;8.55;;;3.22;;
76292;SDS011;67256;51.154;4.164;2023-07-16T02:14:42;10.07;;;2.85;;
76292;SDS011;67256;51.154;4.164;2023-07-16T02:17:08;8.63;;;3.10;;
76292;SDS011;67256;51.154;4.164;2023-07-16T02:19:33;6.65;;;2.42;;
76292;SDS011;67256;51.154;4.164;2023-07-16T02:21:59;9.52;;;2.97;;
76292;SDS011;67256;51.154;4.164;2023-07-16T02:24:25;11.15;;;3.20;;
76292;SDS011;67256;51.154;4.164;2023-07-16T02:26:51;6.45;;;2.80;;
76292;SDS011;67256;51.154;4.164;2023-07-16T02:29:16;9.68;;;3.85;;
76292;SDS011;67256;51.154;4.164;2023-07-16T02:31:42;9.32;;;3.15;;
76292;SDS011;67256;51.154;4.164;2023-07-16T02:34:11;5.93;;;3.10;;
76292;SDS011;67256;51.154;4.164;2023-07-16T02:36:37;7.10;;;3.30;;
76292;SDS011;67256;51.154;4.164;2023-07-16T02:39:03;8.85;;;3.55;;
76292;SDS011;67256;51.154;4.164;2023-07-16T02:41:28;7.60;;;3.50;;
76292;SDS011;67256;51.154;4.164;2023-07-16T02:44:00;7.05;;;3.83;;
76292;SDS011;67256;51.154;4.164;2023-07-16T02:46:29;8.35;;;3.38;;
76292;SDS011;67256;51.154;4.164;2023-07-16T02:48:55;10.75;;;4.38;;
76292;SDS011;67256;51.154;4.164;2023-07-16T02:51:21;9.88;;;3.78;;
76292;SDS011;67256;51.154;4.164;2023-07-16T02:53:46;10.90;;;4.07;;
76292;SDS011;67256;51.154;4.164;2023-07-16T02:56:12;14.75;;;4.28;;
76292;SDS011;67256;51.154;4.164;2023-07-16T02:58:38;11.75;;;3.72;;
76292;SDS011;67256;51.154;4.164;2023-07-16T03:01:05;9.38;;;4.07;;
76292;SDS011;67256;51.154;4.164;2023-07-16T03:03:31;13.57;;;3.72;;
76292;SDS011;67256;51.154;4.164;2023-07-16T03:05:56;9.68;;;4.13;;
76292;SDS011;67256;51.154;4.164;2023-07-16T03:08:22;8.95;;;3.60;;
76292;SDS011;67256;51.154;4.164;2023-07-16T03:10:51;7.72;;;4.22;;
76292;SDS011;67256;51.154;4.164;2023-07-16T03:13:17;10.20;;;3.88;;
76292;SDS011;67256;51.154;4.164;2023-07-16T03:15:44;9.02;;;3.90;;
76292;SDS011;67256;51.154;4.164;2023-07-16T03:18:10;7.13;;;3.75;;
76292;SDS011;67256;51.154;4.164;2023-07-16T03:20:35;11.32;;;3.55;;
76292;SDS011;67256;51.154;4.164;2023-07-16T03:23:02;8.75;;;3.83;;
76292;SDS011;67256;51.154;4.164;2023-07-16T03:25:27;8.80;;;3.65;;
76292;SDS011;67256;51.154;4.164;2023-07-16T03:27:53;7.25;;;3.25;;
76292;SDS011;67256;51.154;4.164;2023-07-16T03:30:18;13.63;;;4.00;;
76292;SDS011;67256;51.154;4.164;2023-07-16T03:32:44;13.50;;;3.95;;
76292;SDS011;67256;51.154;4.164;2023-07-16T03:35:10;8.88;;;3.58;;
76292;SDS011;67256;51.154;4.164;2023-07-16T03:37:35;8.93;;;5.00;;
76292;SDS011;67256;51.154;4.164;2023-07-16T03:40:14;12.32;;;4.07;;
76292;SDS011;67256;51.154;4.164;2023-07-16T03:45:07;14.27;;;4.82;;
76292;SDS011;67256;51.154;4.164;2023-07-16T03:47:33;10.70;;;4.32;;
76292;SDS011;67256;51.154;4.164;2023-07-16T03:49:59;8.73;;;3.72;;
76292;SDS011;67256;51.154;4.164;2023-07-16T03:52:24;13.52;;;3.97;;
76292;SDS011;67256;51.154;4.164;2023-07-16T03:54:51;13.25;;;4.28;;
76292;SDS011;67256;51.154;4.164;2023-07-16T03:57:17;11.20;;;4.78;;
76292;SDS011;67256;51.154;4.164;2023-07-16T03:59:43;10.15;;;4.50;;
76292;SDS011;67256;51.154;4.164;2023-07-16T04:02:08;11.43;;;5.30;;
76292;SDS011;67256;51.154;4.164;2023-07-16T04:04:34;12.75;;;4.85;;
76292;SDS011;67256;51.154;4.164;2023-07-16T04:07:00;9.57;;;4.30;;
76292;SDS011;67256;51.154;4.164;2023-07-16T04:09:25;11.88;;;5.07;;
76292;SDS011;67256;51.154;4.164;2023-07-16T04:11:51;9.07;;;4.30;;
76292;SDS011;67256;51.154;4.164;2023-07-16T04:14:17;11.23;;;4.55;;
76292;SDS011;67256;51.154;4.164;2023-07-16T04:16:42;12.10;;;5.10;;
76292;SDS011;67256;51.154;4.164;2023-07-16T04:19:08;14.50;;;5.65;;
76292;SDS011;67256;51.154;4.164;2023-07-16T04:21:35;10.68;;;4.47;;
76292;SDS011;67256;51.154;4.164;2023-07-16T04:24:02;12.05;;;5.78;;
76292;SDS011;67256;51.154;4.164;2023-07-16T04:26:28;10.90;;;5.10;;
76292;SDS011;67256;51.154;4.164;2023-07-16T04:28:53;10.90;;;5.20;;
76292;SDS011;67256;51.154;4.164;2023-07-16T04:31:19;12.93;;;4.57;;
76292;SDS011;67256;51.154;4.164;2023-07-16T04:33:45;9.63;;;5.00;;
76292;SDS011;67256;51.154;4.164;2023-07-16T04:36:11;12.20;;;5.38;;
76292;SDS011;67256;51.154;4.164;2023-07-16T04:38:37;13.27;;;4.72;;
76292;SDS011;67256;51.154;4.164;2023-07-16T04:41:03;11.63;;;5.43;;
76292;SDS011;67256;51.154;4.164;2023-07-16T04:43:29;10.10;;;4.53;;
76292;SDS011;67256;51.154;4.164;2023-07-16T04:45:54;8.93;;;4.40;;
76292;SDS011;67256;51.154;4.164;2023-07-16T04:48:20;13.10;;;5.30;;
76292;SDS011;67256;51.154;4.164;2023-07-16T04:50:46;12.25;;;5.95;;
76292;SDS011;67256;51.154;4.164;2023-07-16T04:53:11;13.40;;;5.30;;
76292;SDS011;67256;51.154;4.164;2023-07-16T04:55:37;13.43;;;5.50;;
76292;SDS011;67256;51.154;4.164;2023-07-16T04:58:04;11.50;;;5.55;;
76292;SDS011;67256;51.154;4.164;2023-07-16T05:00:31;8.88;;;4.72;;
76292;SDS011;67256;51.154;4.164;2023-07-16T05:02:58;12.43;;;5.55;;
76292;SDS011;67256;51.154;4.164;2023-07-16T05:05:24;11.48;;;5.68;;
76292;SDS011;67256;51.154;4.164;2023-07-16T05:07:49;10.65;;;5.25;;
76292;SDS011;67256;51.154;4.164;2023-07-16T05:10:15;11.90;;;5.32;;
76292;SDS011;67256;51.154;4.164;2023-07-16T05:12:41;12.57;;;5.50;;
76292;SDS011;67256;51.154;4.164;2023-07-16T05:15:07;12.15;;;4.63;;
76292;SDS011;67256;51.154;4.164;2023-07-16T05:17:33;13.80;;;6.40;;
76292;SDS011;67256;51.154;4.164;2023-07-16T05:19:59;13.55;;;6.38;;
76292;SDS011;67256;51.154;4.164;2023-07-16T05:22:25;11.70;;;5.53;;
76292;SDS011;67256;51.154;4.164;2023-07-16T05:24:50;10.98;;;5.22;;
76292;SDS011;67256;51.154;4.164;2023-07-16T05:27:16;12.60;;;5.75;;
76292;SDS011;67256;51.154;4.164;2023-07-16T05:29:42;10.60;;;5.63;;
76292;SDS011;67256;51.154;4.164;2023-07-16T05:32:07;14.32;;;5.18;;
76292;SDS011;67256;51.154;4.164;2023-07-16T05:34:33;9.65;;;5.45;;
76292;SDS011;67256;51.154;4.164;2023-07-16T05:36:59;11.90;;;5.32;;
76292;SDS011;67256;51.154;4.164;2023-07-16T05:39:25;9.48;;;6.03;;
76292;SDS011;67256;51.154;4.164;2023-07-16T05:41:51;11.75;;;5.57;;
76292;SDS011;67256;51.154;4.164;2023-07-16T05:44:17;13.07;;;5.68;;
76292;SDS011;67256;51.154;4.164;2023-07-16T05:46:42;15.57;;;5.78;;
76292;SDS011;67256;51.154;4.164;2023-07-16T05:49:08;12.70;;;6.00;;
76292;SDS011;67256;51.154;4.164;2023-07-16T05:51:33;13.05;;;5.97;;
76292;SDS011;67256;51.154;4.164;2023-07-16T05:54:00;16.35;;;6.35;;
76292;SDS011;67256;51.154;4.164;2023-07-16T05:56:25;16.48;;;6.13;;
76292;SDS011;67256;51.154;4.164;2023-07-16T05:58:51;15.30;;;6.05;;
76292;SDS011;67256;51.154;4.164;2023-07-16T06:01:17;12.80;;;6.28;;
76292;SDS011;67256;51.154;4.164;2023-07-16T06:03:42;13.57;;;6.68;;
76292;SDS011;67256;51.154;4.164;2023-07-16T06:06:08;15.13;;;6.13;;
76292;SDS011;67256;51.154;4.164;2023-07-16T06:08:34;11.93;;;5.95;;
76292;SDS011;67256;51.154;4.164;2023-07-16T06:11:00;13.82;;;6.22;;
76292;SDS011;67256;51.154;4.164;2023-07-16T06:13:26;12.25;;;5.88;;
76292;SDS011;67256;51.154;4.164;2023-07-16T06:15:51;16.00;;;5.72;;
76292;SDS011;67256;51.154;4.164;2023-07-16T06:18:17;12.20;;;5.80;;
76292;SDS011;67256;51.154;4.164;2023-07-16T06:20:44;11.73;;;5.97;;
76292;SDS011;67256;51.154;4.164;2023-07-16T06:23:10;13.73;;;6.00;;
76292;SDS011;67256;51.154;4.164;2023-07-16T06:25:36;14.10;;;6.07;;
76292;SDS011;67256;51.154;4.164;2023-07-16T06:28:02;12.48;;;6.38;;
76292;SDS011;67256;51.154;4.164;2023-07-16T06:30:28;10.77;;;5.18;;
76292;SDS011;67256;51.154;4.164;2023-07-16T06:32:55;12.55;;;5.93;;
76292;SDS011;67256;51.154;4.164;2023-07-16T06:35:21;10.98;;;6.05;;
76292;SDS011;67256;51.154;4.164;2023-07-16T06:37:47;13.60;;;6.30;;
76292;SDS011;67256;51.154;4.164;2023-07-16T06:40:12;14.80;;;6.43;;
76292;SDS011;67256;51.154;4.164;2023-07-16T06:42:38;14.65;;;5.82;;
76292;SDS011;67256;51.154;4.164;2023-07-16T06:45:04;15.02;;;6.22;;
76292;SDS011;67256;51.154;4.164;2023-07-16T06:47:30;13.43;;;6.00;;
76292;SDS011;67256;51.154;4.164;2023-07-16T06:49:56;14.57;;;6.15;;
76292;SDS011;67256;51.154;4.164;2023-07-16T06:52:22;10.75;;;6.55;;
76292;SDS011;67256;51.154;4.164;2023-07-16T06:54:52;12.23;;;6.13;;
76292;SDS011;67256;51.154;4.164;2023-07-16T06:57:18;12.25;;;6.40;;
76292;SDS011;67256;51.154;4.164;2023-07-16T06:59:44;10.15;;;6.15;;
76292;SDS011;67256;51.154;4.164;2023-07-16T07:02:11;13.63;;;6.25;;
76292;SDS011;67256;51.154;4.164;2023-07-16T07:04:37;13.40;;;5.95;;
76292;SDS011;67256;51.154;4.164;2023-07-16T07:07:03;11.57;;;6.88;;
76292;SDS011;67256;51.154;4.164;2023-07-16T07:09:29;14.77;;;6.05;;
76292;SDS011;67256;51.154;4.164;2023-07-16T07:11:55;15.45;;;5.30;;
76292;SDS011;67256;51.154;4.164;2023-07-16T07:14:21;10.27;;;5.72;;
76292;SDS011;67256;51.154;4.164;2023-07-16T07:16:47;11.82;;;6.43;;
76292;SDS011;67256;51.154;4.164;2023-07-16T07:19:12;14.07;;;6.28;;
76292;SDS011;67256;51.154;4.164;2023-07-16T07:21:38;14.00;;;6.90;;
76292;SDS011;67256;51.154;4.164;2023-07-16T07:24:04;12.18;;;6.32;;
76292;SDS011;67256;51.154;4.164;2023-07-16T07:26:30;14.45;;;5.82;;
76292;SDS011;67256;51.154;4.164;2023-07-16T07:28:56;13.38;;;5.55;;
76292;SDS011;67256;51.154;4.164;2023-07-16T07:31:21;17.92;;;6.53;;
76292;SDS011;67256;51.154;4.164;2023-07-16T07:33:47;9.77;;;5.78;;
76292;SDS011;67256;51.154;4.164;2023-07-16T07:36:13;19.77;;;6.75;;
76292;SDS011;67256;51.154;4.164;2023-07-16T07:38:38;13.50;;;5.63;;
76292;SDS011;67256;51.154;4.164;2023-07-16T07:41:04;12.77;;;5.63;;
76292;SDS011;67256;51.154;4.164;2023-07-16T07:43:31;12.20;;;5.55;;
76292;SDS011;67256;51.154;4.164;2023-07-16T07:45:56;10.93;;;5.78;;
76292;SDS011;67256;51.154;4.164;2023-07-16T07:48:22;11.95;;;5.88;;
76292;SDS011;67256;51.154;4.164;2023-07-16T07:50:48;11.77;;;5.93;;
76292;SDS011;67256;51.154;4.164;2023-07-16T07:53:14;14.48;;;6.10;;
76292;SDS011;67256;51.154;4.164;2023-07-16T07:55:42;16.25;;;6.07;;
76292;SDS011;67256;51.154;4.164;2023-07-16T07:58:08;16.42;;;5.28;;
76292;SDS011;67256;51.154;4.164;2023-07-16T08:00:34;15.65;;;6.18;;
76292;SDS011;67256;51.154;4.164;2023-07-16T08:03:00;10.45;;;5.78;;
76292;SDS011;67256;51.154;4.164;2023-07-16T08:05:26;13.18;;;5.30;;
76292;SDS011;67256;51.154;4.164;2023-07-16T08:07:52;11.50;;;4.97;;
76292;SDS011;67256;51.154;4.164;2023-07-16T08:10:18;8.73;;;4.88;;
76292;SDS011;67256;51.154;4.164;2023-07-16T08:12:44;11.80;;;5.53;;
76292;SDS011;67256;51.154;4.164;2023-07-16T08:15:10;12.27;;;5.38;;
76292;SDS011;67256;51.154;4.164;2023-07-16T08:20:06;16.50;;;6.10;;
76292;SDS011;67256;51.154;4.164;2023-07-16T08:22:32;10.68;;;5.35;;
76292;SDS011;67256;51.154;4.164;2023-07-16T08:24:58;9.23;;;4.90;;
76292;SDS011;67256;51.154;4.164;2023-07-16T08:27:23;8.93;;;5.45;;
76292;SDS011;67256;51.154;4.164;2023-07-16T08:29:49;13.80;;;5.90;;
76292;SDS011;67256;51.154;4.164;2023-07-16T08:32:15;10.25;;;5.00;;
76292;SDS011;67256;51.154;4.164;2023-07-16T08:34:40;11.32;;;5.35;;
76292;SDS011;67256;51.154;4.164;2023-07-16T08:37:06;9.68;;;4.65;;
76292;SDS011;67256;51.154;4.164;2023-07-16T08:39:32;12.73;;;4.85;;
76292;SDS011;67256;51.154;4.164;2023-07-16T08:41:58;13.70;;;5.43;;
76292;SDS011;67256;51.154;4.164;2023-07-16T08:44:25;13.85;;;5.50;;
76292;SDS011;67256;51.154;4.164;2023-07-16T08:46:51;12.75;;;5.22;;
76292;SDS011;67256;51.154;4.164;2023-07-16T08:49:18;11.20;;;4.95;;
76292;SDS011;67256;51.154;4.164;2023-07-16T08:51:47;12.32;;;4.70;;
76292;SDS011;67256;51.154;4.164;2023-07-16T08:56:44;10.55;;;4.55;;
76292;SDS011;67256;51.154;4.164;2023-07-16T08:59:13;11.85;;;4.55;;
76292;SDS011;67256;51.154;4.164;2023-07-16T09:01:40;10.48;;;4.40;;
76292;SDS011;67256;51.154;4.164;2023-07-16T09:04:06;13.43;;;5.13;;
76292;SDS011;67256;51.154;4.164;2023-07-16T09:06:32;15.60;;;5.85;;
76292;SDS011;67256;51.154;4.164;2023-07-16T09:08:58;11.05;;;5.03;;
76292;SDS011;67256;51.154;4.164;2023-07-16T09:11:23;13.52;;;4.53;;
76292;SDS011;67256;51.154;4.164;2023-07-16T09:13:50;11.30;;;4.78;;
76292;SDS011;67256;51.154;4.164;2023-07-16T09:16:17;13.82;;;5.28;;
76292;SDS011;67256;51.154;4.164;2023-07-16T09:18:44;10.55;;;4.55;;
76292;SDS011;67256;51.154;4.164;2023-07-16T09:21:10;13.90;;;4.55;;
76292;SDS011;67256;51.154;4.164;2023-07-16T09:23:36;10.57;;;4.82;;
76292;SDS011;67256;51.154;4.164;2023-07-16T09:26:02;12.45;;;4.50;;
76292;SDS011;67256;51.154;4.164;2023-07-16T09:28:30;9.48;;;5.10;;
76292;SDS011;67256;51.154;4.164;2023-07-16T09:31:02;13.07;;;5.00;;
76292;SDS011;67256;51.154;4.164;2023-07-16T09:33:30;14.93;;;4.60;;
76292;SDS011;67256;51.154;4.164;2023-07-16T09:35:57;8.75;;;4.55;;
76292;SDS011;67256;51.154;4.164;2023-07-16T09:38:23;11.13;;;4.97;;
76292;SDS011;67256;51.154;4.164;2023-07-16T09:40:52;11.50;;;4.78;;
76292;SDS011;67256;51.154;4.164;2023-07-16T09:43:20;12.15;;;4.97;;
76292;SDS011;67256;51.154;4.164;2023-07-16T09:45:47;7.97;;;4.80;;
76292;SDS011;67256;51.154;4.164;2023-07-16T09:48:12;13.32;;;5.43;;
76292;SDS011;67256;51.154;4.164;2023-07-16T09:50:39;8.93;;;4.68;;
76292;SDS011;67256;51.154;4.164;2023-07-16T09:53:12;12.02;;;5.15;;
76292;SDS011;67256;51.154;4.164;2023-07-16T09:55:38;14.88;;;5.30;;
76292;SDS011;67256;51.154;4.164;2023-07-16T09:58:08;12.73;;;5.57;;
76292;SDS011;67256;51.154;4.164;2023-07-16T10:00:36;8.15;;;3.97;;
76292;SDS011;67256;51.154;4.164;2023-07-16T10:03:05;9.60;;;4.20;;
76292;SDS011;67256;51.154;4.164;2023-07-16T10:05:35;12.70;;;5.30;;
76292;SDS011;67256;51.154;4.164;2023-07-16T10:08:04;11.27;;;5.72;;
76292;SDS011;67256;51.154;4.164;2023-07-16T10:10:42;10.98;;;4.70;;
76292;SDS011;67256;51.154;4.164;2023-07-16T10:13:18;8.48;;;4.57;;
76292;SDS011;67256;51.154;4.164;2023-07-16T10:15:51;14.98;;;5.53;;
76292;SDS011;67256;51.154;4.164;2023-07-16T10:18:30;14.75;;;4.90;;
76292;SDS011;67256;51.154;4.164;2023-07-16T10:21:04;11.25;;;5.03;;
76292;SDS011;67256;51.154;4.164;2023-07-16T10:23:42;10.45;;;4.40;;
76292;SDS011;67256;51.154;4.164;2023-07-16T10:26:10;9.98;;;4.20;;
76292;SDS011;67256;51.154;4.164;2023-07-16T10:28:37;9.03;;;4.50;;
76292;SDS011;67256;51.154;4.164;2023-07-16T10:31:04;10.40;;;3.70;;
76292;SDS011;67256;51.154;4.164;2023-07-16T10:33:32;6.60;;;3.45;;
76292;SDS011;67256;51.154;4.164;2023-07-16T10:35:59;7.20;;;3.35;;
76292;SDS011;67256;51.154;4.164;2023-07-16T10:38:25;8.23;;;3.35;;
76292;SDS011;67256;51.154;4.164;2023-07-16T10:40:51;4.72;;;2.72;;
76292;SDS011;67256;51.154;4.164;2023-07-16T10:43:17;7.10;;;2.72;;
76292;SDS011;67256;51.154;4.164;2023-07-16T10:45:43;9.32;;;2.42;;
76292;SDS011;67256;51.154;4.164;2023-07-16T10:48:11;6.13;;;3.10;;
76292;SDS011;67256;51.154;4.164;2023-07-16T10:50:37;8.18;;;3.10;;
76292;SDS011;67256;51.154;4.164;2023-07-16T10:53:03;9.18;;;2.78;;
76292;SDS011;67256;51.154;4.164;2023-07-16T10:55:29;8.30;;;2.95;;
76292;SDS011;67256;51.154;4.164;2023-07-16T10:57:57;5.78;;;2.90;;
76292;SDS011;67256;51.154;4.164;2023-07-16T11:00:23;8.30;;;2.65;;
76292;SDS011;67256;51.154;4.164;2023-07-16T11:02:49;6.00;;;2.35;;
76292;SDS011;67256;51.154;4.164;2023-07-16T11:05:16;5.75;;;2.58;;
76292;SDS011;67256;51.154;4.164;2023-07-16T11:07:44;6.97;;;2.45;;
76292;SDS011;67256;51.154;4.164;2023-07-16T11:10:10;4.82;;;2.80;;
76292;SDS011;67256;51.154;4.164;2023-07-16T11:12:36;5.07;;;2.40;;
76292;SDS011;67256;51.154;4.164;2023-07-16T11:15:02;6.85;;;2.22;;
76292;SDS011;67256;51.154;4.164;2023-07-16T11:17:28;5.18;;;1.90;;
76292;SDS011;67256;51.154;4.164;2023-07-16T11:19:55;5.07;;;2.00;;
76292;SDS011;67256;51.154;4.164;2023-07-16T11:22:24;6.82;;;2.30;;
76292;SDS011;67256;51.154;4.164;2023-07-16T11:24:51;4.10;;;1.88;;
76292;SDS011;67256;51.154;4.164;2023-07-16T11:27:26;12.75;;;3.58;;
76292;SDS011;67256;51.154;4.164;2023-07-16T11:29:56;4.00;;;1.83;;
76292;SDS011;67256;51.154;4.164;2023-07-16T11:32:32;9.15;;;2.92;;
76292;SDS011;67256;51.154;4.164;2023-07-16T11:34:59;9.18;;;2.25;;
76292;SDS011;67256;51.154;4.164;2023-07-16T11:37:30;8.90;;;2.78;;
76292;SDS011;67256;51.154;4.164;2023-07-16T11:40:00;5.05;;;1.88;;
76292;SDS011;67256;51.154;4.164;2023-07-16T11:42:28;7.45;;;1.85;;
76292;SDS011;67256;51.154;4.164;2023-07-16T11:44:55;5.45;;;2.10;;
76292;SDS011;67256;51.154;4.164;2023-07-16T11:47:21;6.55;;;1.70;;
76292;SDS011;67256;51.154;4.164;2023-07-16T11:49:48;6.20;;;1.90;;
76292;SDS011;67256;51.154;4.164;2023-07-16T11:52:14;4.78;;;1.83;;
76292;SDS011;67256;51.154;4.164;2023-07-16T11:54:40;7.68;;;2.42;;
76292;SDS011;67256;51.154;4.164;2023-07-16T11:57:06;7.65;;;2.47;;
76292;SDS011;67256;51.154;4.164;2023-07-16T11:59:32;5.38;;;1.67;;
76292;SDS011;67256;51.154;4.164;2023-07-16T12:01:57;5.95;;;1.95;;
76292;SDS011;67256;51.154;4.164;2023-07-16T12:04:24;6.50;;;2.13;;
76292;SDS011;67256;51.154;4.164;2023-07-16T12:06:50;5.22;;;2.13;;
76292;SDS011;67256;51.154;4.164;2023-07-16T12:09:16;8.18;;;2.00;;
76292;SDS011;67256;51.154;4.164;2023-07-16T12:11:41;4.40;;;2.00;;
76292;SDS011;67256;51.154;4.164;2023-07-16T12:14:07;6.00;;;2.25;;
76292;SDS011;67256;51.154;4.164;2023-07-16T12:16:33;5.72;;;2.20;;
76292;SDS011;67256;51.154;4.164;2023-07-16T12:18:59;8.55;;;3.38;;
76292;SDS011;67256;51.154;4.164;2023-07-16T12:21:25;7.93;;;2.90;;
76292;SDS011;67256;51.154;4.164;2023-07-16T12:23:51;5.13;;;2.58;;
76292;SDS011;67256;51.154;4.164;2023-07-16T12:26:17;6.93;;;2.92;;
76292;SDS011;67256;51.154;4.164;2023-07-16T12:28:42;6.20;;;2.50;;
76292;SDS011;67256;51.154;4.164;2023-07-16T12:31:08;7.88;;;2.95;;
76292;SDS011;67256;51.154;4.164;2023-07-16T12:33:34;5.05;;;2.60;;
76292;SDS011;67256;51.154;4.164;2023-07-16T12:36:00;8.90;;;3.03;;
76292;SDS011;67256;51.154;4.164;2023-07-16T12:38:26;3.88;;;2.53;;
76292;SDS011;67256;51.154;4.164;2023-07-16T12:40:51;6.07;;;2.70;;
76292;SDS011;67256;51.154;4.164;2023-07-16T12:43:17;7.20;;;3.10;;
76292;SDS011;67256;51.154;4.164;2023-07-16T12:45:43;7.05;;;2.95;;
76292;SDS011;67256;51.154;4.164;2023-07-16T12:48:08;6.90;;;2.80;;
76292;SDS011;67256;51.154;4.164;2023-07-16T12:50:34;4.85;;;2.10;;
76292;SDS011;67256;51.154;4.164;2023-07-16T12:53:00;8.73;;;2.67;;
76292;SDS011;67256;51.154;4.164;2023-07-16T12:55:25;7.97;;;2.42;;
76292;SDS011;67256;51.154;4.164;2023-07-16T12:57:51;5.70;;;2.28;;
76292;SDS011;67256;51.154;4.164;2023-07-16T13:00:17;5.35;;;2.30;;
76292;SDS011;67256;51.154;4.164;2023-07-16T13:02:43;8.07;;;2.47;;
76292;SDS011;67256;51.154;4.164;2023-07-16T13:05:09;6.78;;;2.42;;
76292;SDS011;67256;51.154;4.164;2023-07-16T13:07:34;5.80;;;2.10;;
76292;SDS011;67256;51.154;4.164;2023-07-16T13:10:00;5.40;;;2.42;;
76292;SDS011;67256;51.154;4.164;2023-07-16T13:12:26;7.38;;;2.65;;
76292;SDS011;67256;51.154;4.164;2023-07-16T13:14:52;5.80;;;2.20;;
76292;SDS011;67256;51.154;4.164;2023-07-16T13:17:18;6.25;;;2.35;;
76292;SDS011;67256;51.154;4.164;2023-07-16T13:19:44;8.30;;;2.60;;
76292;SDS011;67256;51.154;4.164;2023-07-16T13:22:10;6.10;;;2.17;;
76292;SDS011;67256;51.154;4.164;2023-07-16T13:24:36;5.80;;;2.08;;
76292;SDS011;67256;51.154;4.164;2023-07-16T13:27:02;7.78;;;2.13;;
76292;SDS011;67256;51.154;4.164;2023-07-16T13:29:28;6.32;;;2.45;;
76292;SDS011;67256;51.154;4.164;2023-07-16T13:31:53;10.00;;;2.90;;
76292;SDS011;67256;51.154;4.164;2023-07-16T13:34:19;7.50;;;2.60;;
76292;SDS011;67256;51.154;4.164;2023-07-16T13:36:45;11.07;;;3.63;;
76292;SDS011;67256;51.154;4.164;2023-07-16T13:39:10;4.38;;;2.08;;
76292;SDS011;67256;51.154;4.164;2023-07-16T13:41:38;11.95;;;2.85;;
76292;SDS011;67256;51.154;4.164;2023-07-16T13:44:04;4.38;;;2.90;;
76292;SDS011;67256;51.154;4.164;2023-07-16T13:46:30;6.75;;;2.40;;
76292;SDS011;67256;51.154;4.164;2023-07-16T13:48:56;5.30;;;2.50;;
76292;SDS011;67256;51.154;4.164;2023-07-16T13:51:22;4.30;;;2.17;;
76292;SDS011;67256;51.154;4.164;2023-07-16T13:53:49;4.47;;;1.95;;
76292;SDS011;67256;51.154;4.164;2023-07-16T13:56:14;3.30;;;1.60;;
76292;SDS011;67256;51.154;4.164;2023-07-16T13:58:40;2.67;;;1.30;;
76292;SDS011;67256;51.154;4.164;2023-07-16T14:01:06;6.47;;;1.98;;
76292;SDS011;67256;51.154;4.164;2023-07-16T14:03:31;2.33;;;1.00;;
76292;SDS011;67256;51.154;4.164;2023-07-16T14:05:57;7.07;;;1.20;;
76292;SDS011;67256;51.154;4.164;2023-07-16T14:08:23;3.40;;;1.15;;
76292;SDS011;67256;51.154;4.164;2023-07-16T14:10:48;3.72;;;1.83;;
76292;SDS011;67256;51.154;4.164;2023-07-16T14:13:14;4.90;;;1.35;;
76292;SDS011;67256;51.154;4.164;2023-07-16T14:15:41;3.05;;;1.23;;
76292;SDS011;67256;51.154;4.164;2023-07-16T14:18:07;5.00;;;1.70;;
76292;SDS011;67256;51.154;4.164;2023-07-16T14:20:33;5.30;;;1.20;;
76292;SDS011;67256;51.154;4.164;2023-07-16T14:22:59;6.25;;;1.42;;
76292;SDS011;67256;51.154;4.164;2023-07-16T14:25:25;4.30;;;1.50;;
76292;SDS011;67256;51.154;4.164;2023-07-16T14:27:50;3.55;;;1.30;;
76292;SDS011;67256;51.154;4.164;2023-07-16T14:30:16;3.80;;;1.40;;
76292;SDS011;67256;51.154;4.164;2023-07-16T14:32:42;4.18;;;1.35;;
76292;SDS011;67256;51.154;4.164;2023-07-16T14:35:08;3.75;;;1.77;;
76292;SDS011;67256;51.154;4.164;2023-07-16T14:37:34;2.97;;;1.70;;
76292;SDS011;67256;51.154;4.164;2023-07-16T14:40:00;4.65;;;1.50;;
76292;SDS011;67256;51.154;4.164;2023-07-16T14:42:25;4.82;;;1.42;;
76292;SDS011;67256;51.154;4.164;2023-07-16T14:44:51;4.35;;;1.58;;
76292;SDS011;67256;51.154;4.164;2023-07-16T14:47:17;2.97;;;0.90;;
76292;SDS011;67256;51.154;4.164;2023-07-16T14:49:43;2.70;;;1.20;;
76292;SDS011;67256;51.154;4.164;2023-07-16T14:52:08;3.97;;;1.38;;